Time;durP1;ratioP1;P1;durP2;ratioP2;P2;SDS_P1;SDS_P2;PMS_P1;PMS_P2;Temp;Humidity;BMP_temperature;BMP_pressure;BME280_temperature;BME280_humidity;BME280_pressure;Samples;Min_cycle;Max_cycle;Signal;HPM_P1;HPM_P2
2022/04/10 00:00:07;;;;;;;1.13;1.13;;;;;;;14.40;92.80;94276.84;5094655;28;20479;-50
2022/04/10 00:02:35;;;;;;;0.40;0.30;;;;;;;14.84;87.29;94272.94;5094908;28;20521;-50
2022/04/10 00:05:06;;;;;;;0.40;0.30;;;;;;;13.62;100.00;94304.66;5093973;28;20805;-51
2022/04/10 00:07:34;;;;;;;1.03;1.03;;;;;;;13.14;100.00;94202.84;5094859;28;20452;-51
2022/04/10 00:10:03;;;;;;;0.40;0.30;;;;;;;14.13;100.00;94279.09;5094175;28;20987;-50
2022/04/10 00:12:34;;;;;;;0.40;0.40;;;;;;;13.42;100.00;94233.38;5094337;28;20928;-51
2022/04/10 00:15:02;;;;;;;0.40;0.30;;;;;;;13.12;100.00;94276.84;5094098;28;20472;-51
2022/04/10 00:17:31;;;;;;;0.67;0.50;;;;;;;13.24;100.00;94216.63;5093114;28;20873;-51
2022/04/10 00:19:59;;;;;;;0.30;0.20;;;;;;;12.78;100.00;94102.03;5094622;28;20432;-51
2022/04/10 00:22:29;;;;;;;0.40;0.20;;;;;;;14.30;96.19;94263.06;5093039;28;20554;-51
2022/04/10 00:24:57;;;;;;;0.40;0.30;;;;;;;13.78;99.89;94236.53;5093350;28;20432;-51
2022/04/10 00:27:26;;;;;;;6.43;0.30;;;;;;;14.29;98.20;94280.16;5093933;28;20440;-51
2022/04/10 00:29:54;;;;;;;0.40;0.20;;;;;;;14.52;95.69;94281.56;5093480;28;20459;-51
2022/04/10 00:32:27;;;;;;;0.30;0.20;;;;;;;12.71;98.31;94075.91;5093934;28;20429;-51
2022/04/10 00:34:55;;;;;;;0.37;0.20;;;;;;;13.69;95.27;94168.38;5094033;28;20421;-51
2022/04/10 00:37:24;;;;;;;0.30;0.20;;;;;;;14.35;96.03;94290.34;5093989;28;20424;-51
2022/04/10 00:39:54;;;;;;;0.60;0.47;;;;;;;14.02;99.47;94289.28;5093410;28;20511;-51
2022/04/10 00:42:22;;;;;;;0.40;0.30;;;;;;;14.29;93.74;94256.97;5093094;28;20999;-51
2022/04/10 00:44:51;;;;;;;0.40;0.30;;;;;;;14.11;91.74;94236.78;5093243;28;20436;-51
2022/04/10 00:47:19;;;;;;;0.30;0.20;;;;;;;14.78;88.78;94278.78;5093261;28;20429;-51
2022/04/10 00:49:47;;;;;;;0.30;0.20;;;;;;;14.25;90.93;94241.91;5093694;28;20432;-51
2022/04/10 00:52:16;;;;;;;0.40;0.30;;;;;;;14.28;90.22;94231.41;5093702;28;20503;-51
2022/04/10 00:54:44;;;;;;;0.40;0.20;;;;;;;13.68;100.00;94278.66;5093700;28;20437;-51
2022/04/10 00:57:15;;;;;;;7.37;0.30;;;;;;;14.02;97.99;94273.28;5093625;28;20909;-51
2022/04/10 00:59:44;;;;;;;0.40;0.30;;;;;;;12.95;95.24;94090.63;5092629;28;20464;-51
2022/04/10 01:02:12;;;;;;;0.50;0.50;;;;;;;13.65;93.69;94192.19;5093286;28;20459;-51
2022/04/10 01:04:41;;;;;;;0.50;0.50;;;;;;;13.40;100.00;94254.22;5093770;28;20515;-51
2022/04/10 01:07:12;;;;;;;0.40;0.30;;;;;;;13.35;100.00;94265.00;5093531;28;20421;-51
2022/04/10 01:09:41;;;;;;;0.40;0.30;;;;;;;13.72;100.00;94253.75;5093267;28;20518;-51
2022/04/10 01:12:11;;;;;;;0.83;0.30;;;;;;;13.82;100.00;94248.09;5093486;28;20490;-51
2022/04/10 01:14:41;;;;;;;0.40;0.30;;;;;;;13.61;100.00;94265.78;5093286;28;20485;-51
2022/04/10 01:17:11;;;;;;;0.40;0.20;;;;;;;13.17;100.00;94268.72;5093150;28;20464;-51
2022/04/10 01:19:41;;;;;;;0.40;0.40;;;;;;;13.57;100.00;94267.53;5091763;28;20428;-51
2022/04/10 01:22:11;;;;;;;0.40;0.30;;;;;;;13.55;100.00;94258.28;5090945;28;20515;-51
2022/04/10 01:24:43;;;;;;;0.40;0.20;;;;;;;13.77;99.49;94253.59;5091676;28;20460;-51
2022/04/10 01:27:11;;;;;;;0.30;0.20;;;;;;;13.72;97.74;94221.00;5093051;28;20428;-51
2022/04/10 01:29:40;;;;;;;1.07;0.50;;;;;;;13.83;98.87;94257.66;5093010;28;20436;-51
2022/04/10 01:32:09;;;;;;;0.30;0.20;;;;;;;13.42;100.00;94240.59;5092932;28;20945;-51
2022/04/10 01:34:40;;;;;;;0.40;0.33;;;;;;;13.22;100.00;94228.69;5092940;28;20543;-51
2022/04/10 01:37:10;;;;;;;0.30;0.20;;;;;;;13.47;98.76;94182.66;5092886;28;20475;-51
2022/04/10 01:39:38;;;;;;;0.30;0.20;;;;;;;13.95;100.00;94247.16;5093069;28;20515;-51
2022/04/10 01:42:09;;;;;;;0.30;0.20;;;;;;;14.07;96.21;94243.81;5092993;28;20536;-51
2022/04/10 01:44:42;;;;;;;0.40;0.20;;;;;;;14.04;97.35;94233.03;5092703;28;20428;-51
2022/04/10 01:47:10;;;;;;;0.30;0.20;;;;;;;13.98;95.47;94217.22;5092581;28;20444;-51
2022/04/10 01:49:39;;;;;;;0.40;0.30;;;;;;;13.56;100.00;94202.06;5092604;28;20987;-51
2022/04/10 01:52:08;;;;;;;0.40;0.30;;;;;;;13.79;98.42;94239.94;5092761;28;20795;-51
2022/04/10 01:54:37;;;;;;;0.57;0.50;;;;;;;13.56;98.23;94188.75;5092384;28;20507;-51
2022/04/10 01:57:24;;;;;;;0.30;0.20;;;;;;;13.45;100.00;94213.34;5090674;28;20470;-51
2022/04/10 01:59:54;;;;;;;0.40;0.30;;;;;;;13.25;100.00;94212.09;5092258;28;20467;-51
2022/04/10 02:02:22;;;;;;;0.40;0.20;;;;;;;13.31;100.00;94213.50;5091810;28;20523;-51
2022/04/10 02:04:51;;;;;;;0.30;0.20;;;;;;;13.24;100.00;94231.81;5092288;28;20943;-51
2022/04/10 02:07:20;;;;;;;0.40;0.30;;;;;;;13.10;100.00;94212.53;5092660;28;20432;-51
2022/04/10 02:09:48;;;;;;;0.40;0.30;;;;;;;12.88;100.00;94232.00;5092103;28;20875;-51
2022/04/10 02:12:16;;;;;;;0.40;0.40;;;;;;;12.70;100.00;94206.47;5092405;28;20436;-51
2022/04/10 02:14:45;;;;;;;0.30;0.20;;;;;;;12.92;100.00;94200.28;5092212;28;20416;-51
2022/04/10 02:17:15;;;;;;;0.37;0.20;;;;;;;13.29;100.00;94234.31;5091956;28;20523;-51
2022/04/10 02:19:43;;;;;;;0.53;0.53;;;;;;;13.47;100.00;94241.22;5092274;28;20444;-51
2022/04/10 02:22:11;;;;;;;1.00;0.30;;;;;;;12.15;100.00;94078.63;5091113;28;20460;-51
2022/04/10 02:24:40;;;;;;;0.50;0.40;;;;;;;13.00;100.00;94247.38;5092302;28;20420;-51
2022/04/10 02:27:08;;;;;;;0.30;0.30;;;;;;;11.63;100.00;94064.38;5092071;28;20799;-51
2022/04/10 02:29:36;;;;;;;0.97;0.30;;;;;;;13.06;100.00;94224.84;5092034;28;20417;-51
2022/04/10 02:32:06;;;;;;;0.30;0.20;;;;;;;13.52;100.00;94249.03;5092233;28;20483;-51
2022/04/10 02:34:37;;;;;;;0.40;0.30;;;;;;;13.05;100.00;94252.56;5092222;28;20463;-51
2022/04/10 02:37:06;;;;;;;0.40;0.30;;;;;;;13.31;100.00;94248.06;5090700;28;20519;-51
2022/04/10 02:39:35;;;;;;;0.37;0.27;;;;;;;13.07;100.00;94175.94;5090743;28;20995;-51
2022/04/10 02:42:04;;;;;;;0.30;0.20;;;;;;;13.35;100.00;94223.22;5091637;28;20515;-51
2022/04/10 02:44:32;;;;;;;0.37;0.30;;;;;;;13.46;100.00;94244.19;5091088;28;20684;-51
2022/04/10 02:47:00;;;;;;;0.40;0.30;;;;;;;13.55;100.00;94259.06;5091843;28;20515;-51
2022/04/10 02:49:29;;;;;;;0.37;0.23;;;;;;;13.43;100.00;94240.28;5091852;28;20464;-50
2022/04/10 02:51:59;;;;;;;0.40;0.30;;;;;;;13.77;100.00;94242.94;5091753;28;20424;-51
2022/04/10 02:54:27;;;;;;;0.50;0.50;;;;;;;13.77;100.00;94248.25;5090426;28;20947;-50
2022/04/10 02:56:55;;;;;;;0.30;0.20;;;;;;;12.75;100.00;94062.78;5091631;28;20511;-51
2022/04/10 02:59:24;;;;;;;0.40;0.30;;;;;;;13.45;100.00;94211.47;5091850;28;20433;-50
2022/04/10 03:01:52;;;;;;;0.40;0.30;;;;;;;12.50;100.00;94059.00;5091870;28;20440;-51
2022/04/10 03:04:21;;;;;;;0.30;0.20;;;;;;;13.50;100.00;94235.28;5091980;28;20491;-51
2022/04/10 03:06:49;;;;;;;0.30;0.20;;;;;;;13.68;100.00;94246.69;5090588;28;20464;-51
2022/04/10 03:09:19;;;;;;;3.13;0.40;;;;;;;13.60;100.00;94250.94;5090800;28;20468;-51
2022/04/10 03:11:47;;;;;;;0.40;0.27;;;;;;;13.81;100.00;94243.09;5091113;28;20489;-51
2022/04/10 03:14:16;;;;;;;0.40;0.30;;;;;;;12.56;100.00;94033.84;5091845;28;20537;-51
2022/04/10 03:16:45;;;;;;;0.50;0.30;;;;;;;13.61;100.00;94217.13;5091805;28;20534;-50
2022/04/10 03:19:32;;;;;;;0.30;0.20;;;;;;;13.82;100.00;94240.09;5091511;28;20422;-50
2022/04/10 03:22:00;;;;;;;0.30;0.20;;;;;;;13.95;100.00;94231.16;5091441;28;20479;-50
2022/04/10 03:24:30;;;;;;;0.30;0.20;;;;;;;13.79;100.00;94237.28;5091451;28;20529;-50
2022/04/10 03:26:58;;;;;;;0.40;0.20;;;;;;;14.00;100.00;94244.31;5091533;28;20454;-50
2022/04/10 03:29:27;;;;;;;0.30;0.20;;;;;;;13.62;100.00;94189.38;5090546;28;20475;-51
2022/04/10 03:31:55;;;;;;;0.30;0.20;;;;;;;14.08;100.00;94252.59;5091653;28;20519;-50
2022/04/10 03:34:24;;;;;;;0.47;0.30;;;;;;;13.16;99.69;94208.63;5091397;28;20446;-50
2022/04/10 03:36:52;;;;;;;0.47;0.37;;;;;;;14.21;96.56;94272.97;5091675;28;20497;-50
2022/04/10 03:39:21;;;;;;;0.30;0.20;;;;;;;14.28;95.78;94271.38;5090837;28;20490;-50
2022/04/10 03:41:50;;;;;;;2.47;0.40;;;;;;;14.27;94.96;94269.03;5091212;28;20868;-50
2022/04/10 03:44:19;;;;;;;0.40;0.30;;;;;;;13.78;100.00;94257.81;5089688;28;20566;-50
2022/04/10 03:46:47;;;;;;;0.40;0.30;;;;;;;13.94;100.00;94236.78;5090709;28;20468;-50
2022/04/10 03:49:16;;;;;;;0.30;0.30;;;;;;;13.98;100.00;94253.72;5090990;28;20431;-50
2022/04/10 03:51:44;;;;;;;1.20;1.20;;;;;;;13.53;100.00;94263.94;5090848;28;20955;-50
2022/04/10 03:54:12;;;;;;;2.07;0.33;;;;;;;13.41;100.00;94274.38;5091117;28;20432;-50
2022/04/10 03:56:41;;;;;;;0.37;0.27;;;;;;;13.72;100.00;94272.38;5092430;28;20464;-50
2022/04/10 03:59:10;;;;;;;0.40;0.30;;;;;;;13.81;100.00;94283.81;5092727;28;20944;-51
2022/04/10 04:01:39;;;;;;;0.60;0.60;;;;;;;13.96;100.00;94262.00;5092662;28;20463;-50
2022/04/10 04:04:08;;;;;;;0.40;0.30;;;;;;;13.91;100.00;94243.53;5093160;28;20525;-50
2022/04/10 04:06:36;;;;;;;0.57;0.57;;;;;;;13.90;100.00;94265.97;5094637;28;20438;-50
2022/04/10 04:09:04;;;;;;;0.50;0.50;;;;;;;13.95;100.00;94236.50;5094333;28;20527;-50
2022/04/10 04:11:33;;;;;;;0.53;0.47;;;;;;;12.92;99.30;94059.34;5094647;28;20959;-51
2022/04/10 04:14:01;;;;;;;0.30;0.20;;;;;;;14.16;99.21;94247.28;5094484;28;20433;-50
2022/04/10 04:16:34;;;;;;;0.40;0.30;;;;;;;14.19;99.03;94257.31;5094311;28;20429;-50
2022/04/10 04:19:03;;;;;;;0.30;0.20;;;;;;;14.02;100.00;94250.09;5094986;28;20421;-50
2022/04/10 04:21:31;;;;;;;0.90;0.70;;;;;;;14.14;100.00;94265.44;5094539;28;20440;-50
2022/04/10 04:24:00;;;;;;;0.70;0.70;;;;;;;13.72;100.00;94271.59;5094223;28;20464;-50
2022/04/10 04:26:28;;;;;;;0.30;0.30;;;;;;;13.88;100.00;94262.03;5094097;28;20468;-50
2022/04/10 04:28:57;;;;;;;0.53;0.40;;;;;;;12.75;100.00;94262.94;5094193;28;20469;-50
2022/04/10 04:31:25;;;;;;;0.57;0.47;;;;;;;12.82;100.00;94254.53;5094118;28;20444;-50
2022/04/10 04:33:55;;;;;;;0.50;0.50;;;;;;;12.66;100.00;94256.81;5094448;28;20421;-49
2022/04/10 04:36:23;;;;;;;6.70;2.70;;;;;;;12.39;100.00;94258.91;5093877;28;20519;-49
2022/04/10 04:38:52;;;;;;;0.77;0.77;;;;;;;12.84;100.00;94273.63;5094127;28;20507;-50
2022/04/10 04:41:21;;;;;;;2.60;2.40;;;;;;;12.60;100.00;94276.66;5094121;28;20436;-50
2022/04/10 04:43:49;;;;;;;1.07;0.70;;;;;;;12.50;100.00;94282.22;5093835;28;20563;-50
2022/04/10 04:46:42;;;;;;;0.30;0.20;;;;;;;12.61;100.00;94283.53;5094100;28;20464;-50
2022/04/10 04:49:12;;;;;;;3.90;0.40;;;;;;;12.89;100.00;94283.34;5094133;28;20453;-50
2022/04/10 04:51:41;;;;;;;0.40;0.30;;;;;;;13.27;100.00;94284.41;5093976;28;20933;-50
2022/04/10 04:54:09;;;;;;;0.60;0.60;;;;;;;12.96;100.00;94284.44;5093731;28;20413;-50
2022/04/10 04:56:38;;;;;;;0.30;0.20;;;;;;;13.08;100.00;94286.56;5093629;28;20432;-50
2022/04/10 04:59:06;;;;;;;0.40;0.30;;;;;;;13.10;100.00;94265.75;5093551;28;20963;-50
2022/04/10 05:01:35;;;;;;;2.00;0.97;;;;;;;12.38;100.00;94252.00;5093411;28;20428;-49
2022/04/10 05:04:03;;;;;;;0.40;0.40;;;;;;;12.73;100.00;94270.44;5093317;28;20552;-50
2022/04/10 05:06:33;;;;;;;1.53;0.80;;;;;;;12.60;100.00;94259.91;5093044;28;20516;-50
2022/04/10 05:09:02;;;;;;;0.87;0.70;;;;;;;12.32;100.00;94254.00;5092485;28;20474;-50
2022/04/10 05:11:30;;;;;;;1.77;1.67;;;;;;;12.41;100.00;94252.19;5093350;28;20497;-50
2022/04/10 05:13:58;;;;;;;0.67;0.60;;;;;;;12.54;100.00;94234.59;5093258;28;20496;-50
2022/04/10 05:16:27;;;;;;;0.73;0.53;;;;;;;12.22;100.00;94251.63;5093520;28;21134;-49
2022/04/10 05:18:55;;;;;;;0.37;0.30;;;;;;;12.32;100.00;94211.50;5093629;28;20428;-50
2022/04/10 05:21:24;;;;;;;0.40;0.30;;;;;;;13.53;100.00;94250.63;5093100;28;20441;-50
2022/04/10 05:23:54;;;;;;;0.40;0.40;;;;;;;13.29;100.00;94252.94;5093303;28;20758;-50
2022/04/10 05:26:22;;;;;;;0.50;0.50;;;;;;;13.25;100.00;94254.66;5092889;28;20871;-50
2022/04/10 05:28:50;;;;;;;2.87;0.50;;;;;;;13.44;100.00;94236.50;5092602;28;20448;-50
2022/04/10 05:31:25;;;;;;;0.30;0.20;;;;;;;13.73;100.00;94259.84;5092981;28;20428;-49
2022/04/10 05:33:54;;;;;;;1.03;1.03;;;;;;;13.40;100.00;94253.41;5093140;28;20503;-49
2022/04/10 05:36:22;;;;;;;0.90;0.90;;;;;;;12.90;100.00;94266.28;5093085;28;20516;-50
2022/04/10 05:38:51;;;;;;;0.40;0.30;;;;;;;13.12;100.00;94266.22;5092815;28;20500;-50
2022/04/10 05:41:21;;;;;;;0.77;0.77;;;;;;;13.07;100.00;94266.38;5092638;28;20471;-50
2022/04/10 05:43:49;;;;;;;0.40;0.30;;;;;;;13.05;100.00;94242.72;5092630;28;20421;-50
2022/04/10 05:46:18;;;;;;;1.03;0.97;;;;;;;12.84;100.00;94260.31;5092921;28;20533;-50
2022/04/10 05:48:47;;;;;;;0.50;0.40;;;;;;;13.18;100.00;94235.72;5092707;28;21163;-51
2022/04/10 05:51:15;;;;;;;0.30;0.20;;;;;;;14.24;100.00;94251.00;5092209;28;20997;-51
2022/04/10 05:53:43;;;;;;;0.30;0.30;;;;;;;14.33;100.00;94254.47;5092501;28;20424;-51
2022/04/10 05:56:12;;;;;;;0.50;0.50;;;;;;;14.60;100.00;94238.06;5092841;28;20464;-50
2022/04/10 05:58:41;;;;;;;0.40;0.30;;;;;;;14.93;97.65;94239.00;5092421;28;20845;-50
2022/04/10 06:01:10;;;;;;;0.30;0.20;;;;;;;15.24;96.07;94236.78;5092498;28;20471;-50
2022/04/10 06:03:38;;;;;;;2.97;0.60;;;;;;;15.13;95.24;94237.47;5092447;28;20459;-50
2022/04/10 06:06:07;;;;;;;0.40;0.30;;;;;;;15.46;90.73;94227.69;5092681;28;20472;-50
2022/04/10 06:08:35;;;;;;;0.70;0.50;;;;;;;15.55;87.86;94231.09;5092647;28;20491;-50
2022/04/10 06:11:04;;;;;;;0.30;0.30;;;;;;;15.96;86.86;94229.50;5092015;28;20472;-49
2022/04/10 06:13:33;;;;;;;1.20;1.20;;;;;;;15.94;87.23;94227.13;5092389;28;20436;-49
2022/04/10 06:16:02;;;;;;;1.60;0.40;;;;;;;16.52;81.47;94220.75;5092334;28;20436;-50
2022/04/10 06:18:31;;;;;;;0.40;0.30;;;;;;;16.52;81.28;94218.84;5092006;28;20428;-50
2022/04/10 06:20:59;;;;;;;0.40;0.30;;;;;;;15.96;86.58;94227.63;5091131;28;20474;-50
2022/04/10 06:23:28;;;;;;;0.30;0.20;;;;;;;16.07;85.91;94225.28;5092178;28;20916;-50
2022/04/10 06:25:56;;;;;;;0.40;0.30;;;;;;;15.02;93.34;94226.41;5091971;28;20988;-50
2022/04/10 06:28:25;;;;;;;0.40;0.30;;;;;;;15.71;92.66;94231.31;5091665;28;20467;-50
2022/04/10 06:30:53;;;;;;;0.80;0.77;;;;;;;16.21;86.54;94228.47;5092172;28;20499;-50
2022/04/10 06:33:23;;;;;;;0.40;0.30;;;;;;;15.47;90.05;94210.59;5090615;28;20420;-50
2022/04/10 06:35:53;;;;;;;1.60;0.83;;;;;;;15.87;85.49;94233.03;5092102;28;20420;-50
2022/04/10 06:38:22;;;;;;;0.50;0.40;;;;;;;15.88;84.64;94215.91;5092172;28;20432;-50
2022/04/10 06:40:51;;;;;;;0.60;0.60;;;;;;;16.48;79.47;94227.84;5092044;28;20845;-50
2022/04/10 06:43:20;;;;;;;0.40;0.20;;;;;;;16.33;82.56;94223.94;5091729;28;20909;-51
2022/04/10 06:45:49;;;;;;;0.50;0.50;;;;;;;15.54;87.87;94220.72;5090696;28;20550;-50
2022/04/10 06:48:17;;;;;;;0.70;0.40;;;;;;;16.12;82.35;94241.91;5091043;28;20434;-50
2022/04/10 06:50:47;;;;;;;0.40;0.30;;;;;;;16.10;86.22;94229.97;5090483;28;20428;-50
2022/04/10 06:53:15;;;;;;;0.40;0.20;;;;;;;16.06;88.98;94231.75;5090670;28;20460;-50
2022/04/10 06:55:44;;;;;;;11.43;0.50;;;;;;;16.01;85.41;94227.41;5091082;28;20506;-50
2022/04/10 06:58:12;;;;;;;0.80;0.80;;;;;;;16.08;91.41;94210.81;5090774;28;20421;-50
2022/04/10 07:00:41;;;;;;;0.73;0.73;;;;;;;15.88;89.30;94223.13;5091355;28;20431;-50
2022/04/10 07:03:09;;;;;;;0.47;0.37;;;;;;;16.08;92.55;94230.31;5091569;28;20468;-50
2022/04/10 07:05:39;;;;;;;0.50;0.30;;;;;;;16.07;86.91;94227.97;5091481;28;20464;-50
2022/04/10 07:08:09;;;;;;;0.43;0.33;;;;;;;15.20;95.34;94221.75;5091511;28;20520;-50
2022/04/10 07:10:38;;;;;;;0.43;0.30;;;;;;;14.73;100.00;94202.38;5091245;28;20476;-51
2022/04/10 07:13:06;;;;;;;0.50;0.30;;;;;;;15.46;100.00;94217.03;5091788;28;20416;-50
2022/04/10 07:15:35;;;;;;;0.50;0.40;;;;;;;15.89;96.69;94216.66;5091625;28;20420;-50
2022/04/10 07:18:05;;;;;;;0.40;0.30;;;;;;;15.65;100.00;94200.53;5091080;28;20409;-50
2022/04/10 07:20:34;;;;;;;0.40;0.40;;;;;;;16.03;100.00;94189.66;5091306;28;20417;-50
2022/04/10 07:25:50;;;;;;;0.40;0.30;;;;;;;14.80;100.00;94172.56;5091149;28;21092;-50
2022/04/10 07:28:18;;;;;;;0.60;0.50;;;;;;;14.56;100.00;94176.59;5091233;28;20424;-50
2022/04/10 07:30:47;;;;;;;1.03;1.03;;;;;;;15.30;100.00;94188.53;5091680;28;20416;-50
2022/04/10 07:33:16;;;;;;;0.73;0.73;;;;;;;15.76;98.26;94185.69;5095394;28;20977;-50
2022/04/10 07:35:45;;;;;;;3.30;0.50;;;;;;;15.61;99.45;94189.72;5095573;28;20412;-50
2022/04/10 07:38:13;;;;;;;0.70;0.70;;;;;;;15.24;100.00;94196.75;5095071;28;20427;-50
2022/04/10 07:40:41;;;;;;;0.37;0.30;;;;;;;16.05;93.51;94188.22;5095340;28;20424;-49
2022/04/10 07:43:11;;;;;;;0.40;0.30;;;;;;;16.21;86.01;94138.38;5094862;28;21069;-50
2022/04/10 07:48:26;;;;;;;0.50;0.30;;;;;;;16.77;85.01;94155.47;5094186;28;20420;-50
2022/04/10 07:50:55;;;;;;;0.40;0.30;;;;;;;16.95;84.10;94172.81;5094282;28;20425;-51
2022/04/10 07:53:24;;;;;;;0.40;0.30;;;;;;;17.00;84.47;94172.59;5094727;28;20803;-51
2022/04/10 07:55:53;;;;;;;0.40;0.30;;;;;;;16.93;83.33;94174.25;5094564;28;20481;-51
2022/04/10 07:58:23;;;;;;;0.30;0.20;;;;;;;17.09;88.76;94170.59;5094815;28;20425;-51
2022/04/10 08:00:51;;;;;;;0.40;0.20;;;;;;;16.51;88.67;94145.06;5094977;28;20447;-51
2022/04/10 08:03:20;;;;;;;0.60;0.53;;;;;;;17.05;85.19;94134.13;5094461;28;20462;-50
2022/04/10 08:05:49;;;;;;;0.40;0.30;;;;;;;17.57;82.15;94160.88;5094347;28;20983;-50
2022/04/10 08:08:17;;;;;;;0.70;0.70;;;;;;;17.03;86.65;94149.72;5094375;28;20508;-50
2022/04/10 08:10:46;;;;;;;0.60;0.47;;;;;;;17.27;87.30;94143.53;5094255;28;20472;-51
2022/04/10 08:13:15;;;;;;;0.40;0.27;;;;;;;17.58;83.64;94139.09;5094103;28;20427;-51
2022/04/10 08:15:46;;;;;;;0.50;0.50;;;;;;;18.28;83.05;94145.56;5094219;28;20455;-51
2022/04/10 08:18:15;;;;;;;0.90;0.50;;;;;;;18.97;70.68;94142.22;5094709;28;20424;-52
2022/04/10 08:20:43;;;;;;;0.93;0.93;;;;;;;18.78;71.61;94126.09;5094625;28;20472;-52
2022/04/10 08:23:11;;;;;;;0.50;0.40;;;;;;;19.17;74.23;94124.25;5094239;28;20950;-52
2022/04/10 08:25:40;;;;;;;0.50;0.40;;;;;;;19.22;69.48;94123.19;5094406;28;20472;-53
2022/04/10 08:28:08;;;;;;;0.90;0.50;;;;;;;19.01;78.33;94128.88;5094185;28;20416;-53
2022/04/10 08:30:39;;;;;;;0.40;0.27;;;;;;;19.35;75.91;94132.69;5094502;28;20849;-53
2022/04/10 08:33:09;;;;;;;1.63;1.53;;;;;;;19.34;73.53;94098.88;5093990;28;20497;-55
2022/04/10 08:35:38;;;;;;;9.00;0.50;;;;;;;20.21;63.97;94115.91;5094300;28;20444;-55
2022/04/10 08:38:06;;;;;;;3.13;1.13;;;;;;;20.72;60.71;94094.09;5094543;28;20485;-55
2022/04/10 08:40:35;;;;;;;0.40;0.40;;;;;;;21.29;56.57;94107.25;5093853;28;20474;-55
2022/04/10 08:43:03;;;;;;;4.20;0.60;;;;;;;21.43;57.28;94093.94;5092827;28;20446;-55
2022/04/10 08:45:32;;;;;;;0.40;0.30;;;;;;;21.52;59.20;94094.44;5093964;28;20458;-55
2022/04/10 08:48:00;;;;;;;0.53;0.47;;;;;;;21.78;54.33;94079.31;5093819;28;20451;-53
2022/04/10 08:50:31;;;;;;;0.87;0.60;;;;;;;21.11;56.69;94051.56;5093696;28;20440;-53
2022/04/10 08:53:00;;;;;;;0.50;0.40;;;;;;;22.13;55.66;94079.69;5093809;28;20425;-53
2022/04/10 08:55:30;;;;;;;0.50;0.50;;;;;;;21.96;50.20;94077.63;5093690;28;20482;-53
2022/04/10 08:57:58;;;;;;;0.83;0.83;;;;;;;22.09;48.76;94068.84;5094129;28;20454;-53
2022/04/10 09:00:27;;;;;;;0.40;0.40;;;;;;;23.40;46.98;94071.75;5093602;28;20464;-53
2022/04/10 09:02:55;;;;;;;0.90;0.50;;;;;;;24.80;42.90;94073.97;5094067;28;20470;-52
2022/04/10 09:05:25;;;;;;;0.60;0.50;;;;;;;24.85;41.90;94067.38;5093373;28;20460;-53
2022/04/10 09:08:09;;;;;;;0.53;0.50;;;;;;;25.30;41.72;94065.75;5093318;28;20487;-52
2022/04/10 09:10:54;;;;;;;0.60;0.60;;;;;;;23.75;42.09;94059.13;5093114;28;20503;-52
2022/04/10 09:13:32;;;;;;;0.80;0.60;;;;;;;25.23;40.00;94047.53;5093583;28;20831;-51
2022/04/10 09:16:19;;;;;;;0.50;0.50;;;;;;;24.17;43.51;94027.91;5093293;28;20419;-52
2022/04/10 09:18:50;;;;;;;0.50;0.50;;;;;;;23.69;45.67;94046.34;5093437;28;20416;-52
2022/04/10 09:21:20;;;;;;;0.40;0.40;;;;;;;21.98;48.14;94002.47;5093119;28;20932;-53
2022/04/10 09:23:58;;;;;;;0.40;0.33;;;;;;;23.55;43.86;94044.38;5093032;28;20482;-52
2022/04/10 09:26:27;;;;;;;0.47;0.40;;;;;;;24.51;40.35;94040.69;5092430;28;20471;-51
2022/04/10 09:28:55;;;;;;;2.23;0.60;;;;;;;23.51;40.29;93943.53;5092386;28;20455;-51
2022/04/10 09:31:29;;;;;;;1.23;0.50;;;;;;;23.56;39.07;94031.63;5092531;28;20449;-51
2022/04/10 09:33:58;;;;;;;0.40;0.30;;;;;;;22.59;40.73;94023.38;5093308;28;20861;-50
2022/04/10 09:36:35;;;;;;;0.40;0.30;;;;;;;22.82;40.99;94017.75;5092921;28;20482;-51
2022/04/10 09:39:08;;;;;;;0.40;0.30;;;;;;;22.33;41.33;93969.56;5092905;28;20424;-50
2022/04/10 09:41:37;;;;;;;0.50;0.40;;;;;;;23.04;39.23;94014.78;5092751;28;20496;-50
2022/04/10 09:44:20;;;;;;;0.40;0.30;;;;;;;22.31;40.08;94015.06;5093121;28;20420;-50
2022/04/10 09:47:01;;;;;;;0.37;0.30;;;;;;;22.13;39.94;94007.63;5092665;28;20525;-51
2022/04/10 09:49:33;;;;;;;0.40;0.30;;;;;;;23.30;37.38;94000.22;5093002;28;20421;-51
2022/04/10 09:52:08;;;;;;;0.30;0.30;;;;;;;22.35;37.87;93995.03;5092527;28;20515;-50
2022/04/10 09:54:40;;;;;;;0.50;0.50;;;;;;;23.41;35.78;94001.06;5092270;28;20419;-50
2022/04/10 09:57:12;;;;;;;0.60;0.30;;;;;;;22.69;37.74;93985.63;5092836;28;20424;-51
2022/04/10 09:59:43;;;;;;;0.30;0.27;;;;;;;23.17;36.75;93980.09;5092871;28;20421;-51
2022/04/10 10:02:13;;;;;;;0.50;0.30;;;;;;;22.19;38.16;93985.69;5092562;28;20421;-51
2022/04/10 10:04:43;;;;;;;2.73;0.50;;;;;;;22.14;37.73;93976.78;5092349;28;20428;-52
2022/04/10 10:07:13;;;;;;;0.63;0.63;;;;;;;22.72;35.21;93976.78;5092331;28;20525;-52
2022/04/10 10:09:44;;;;;;;0.40;0.20;;;;;;;22.52;36.38;93969.31;5092110;28;21109;-51
2022/04/10 10:12:13;;;;;;;0.40;0.30;;;;;;;22.43;37.75;93972.34;5092265;28;20504;-51
2022/04/10 10:14:42;;;;;;;0.77;0.77;;;;;;;23.19;35.14;93973.16;5092395;28;20892;-52
2022/04/10 10:17:11;;;;;;;0.40;0.30;;;;;;;23.26;36.78;93959.66;5092184;28;20470;-52
2022/04/10 10:19:42;;;;;;;0.40;0.30;;;;;;;22.99;36.32;93950.31;5092129;28;20490;-51
2022/04/10 10:22:12;;;;;;;2.53;0.50;;;;;;;22.75;34.89;93886.13;5092146;28;20507;-51
2022/04/10 10:24:59;;;;;;;0.50;0.40;;;;;;;23.82;33.42;93929.25;5091908;28;20639;-51
2022/04/10 10:27:53;;;;;;;0.40;0.30;;;;;;;23.51;32.81;93856.19;5091946;28;20515;-51
2022/04/10 10:30:26;;;;;;;0.40;0.30;;;;;;;23.93;32.64;93916.50;5091737;28;20440;-51
2022/04/10 10:32:58;;;;;;;0.40;0.30;;;;;;;24.10;35.02;93923.09;5091933;28;20448;-51
2022/04/10 10:35:31;;;;;;;0.30;0.20;;;;;;;23.76;29.10;93928.09;5091677;28;20507;-50
2022/04/10 10:38:01;;;;;;;0.37;0.27;;;;;;;24.58;26.58;93935.03;5091799;28;20837;-50
2022/04/10 10:40:31;;;;;;;0.40;0.30;;;;;;;24.23;27.42;93916.13;5092124;28;20432;-51
2022/04/10 10:43:03;;;;;;;0.30;0.20;;;;;;;25.04;27.28;93907.78;5091833;28;20909;-51
2022/04/10 10:45:34;;;;;;;0.40;0.30;;;;;;;25.46;27.08;93914.94;5091874;28;20412;-51
2022/04/10 10:48:42;;;;;;;6.40;0.30;;;;;;;25.27;26.50;93880.94;5091720;28;20464;-52
2022/04/10 10:51:42;;;;;;;0.30;0.30;;;;;;;25.07;28.29;93877.16;5089882;28;20966;-51
2022/04/10 10:54:21;;;;;;;0.40;0.30;;;;;;;23.99;27.72;93862.75;5090681;28;20443;-51
2022/04/10 10:56:51;;;;;;;3.97;0.53;;;;;;;25.82;27.10;93847.63;5091714;28;20429;-52
2022/04/10 10:59:23;;;;;;;0.30;0.30;;;;;;;24.55;26.92;93851.03;5092067;28;20424;-51
2022/04/10 11:01:55;;;;;;;0.40;0.30;;;;;;;25.11;25.83;93844.63;5092196;28;20432;-51
2022/04/10 11:04:28;;;;;;;0.50;0.30;;;;;;;25.03;26.98;93848.53;5091912;28;20473;-51
2022/04/10 11:07:11;;;;;;;0.30;0.20;;;;;;;24.83;26.45;93836.63;5094143;28;20424;-52
2022/04/10 11:09:51;;;;;;;0.40;0.30;;;;;;;24.83;25.42;93845.56;5095580;28;20526;-51
2022/04/10 11:12:23;;;;;;;0.30;0.30;;;;;;;25.20;26.22;93832.16;5095619;28;20479;-51
2022/04/10 11:14:56;;;;;;;0.30;0.30;;;;;;;26.02;25.39;93842.41;5095474;28;20475;-51
2022/04/10 11:17:28;;;;;;;0.40;0.37;;;;;;;25.63;24.72;93842.72;5095549;28;20428;-51
2022/04/10 11:19:59;;;;;;;0.40;0.40;;;;;;;25.82;23.67;93825.91;5095585;28;20478;-52
2022/04/10 11:22:33;;;;;;;0.30;0.30;;;;;;;26.27;23.68;93832.88;5095533;28;20472;-52
2022/04/10 11:25:07;;;;;;;0.57;0.40;;;;;;;26.47;23.19;93846.63;5095848;28;20424;-52
2022/04/10 11:27:47;;;;;;;0.40;0.37;;;;;;;26.36;22.83;93825.00;5095203;28;21161;-51
2022/04/10 11:30:21;;;;;;;0.40;0.30;;;;;;;26.58;22.46;93832.91;5094355;28;20420;-51
2022/04/10 11:32:54;;;;;;;0.50;0.40;;;;;;;26.52;22.89;93818.22;5095561;28;20428;-52
2022/04/10 11:35:26;;;;;;;0.40;0.30;;;;;;;27.91;22.56;93805.00;5095334;28;20432;-52
2022/04/10 11:37:59;;;;;;;0.40;0.30;;;;;;;27.46;22.26;93791.75;5095257;28;20432;-52
2022/04/10 11:40:29;;;;;;;0.40;0.30;;;;;;;25.40;24.16;93801.81;5095256;28;20432;-52
2022/04/10 11:43:02;;;;;;;0.37;0.27;;;;;;;24.73;24.99;93808.41;5095107;28;20432;-51
2022/04/10 11:45:32;;;;;;;0.40;0.40;;;;;;;24.29;25.48;93800.84;5095114;28;20448;-51
2022/04/10 11:48:06;;;;;;;2.63;0.30;;;;;;;23.87;26.38;93790.88;5095149;28;20701;-51